sensor_id;sensor_type;location;lat;lon;timestamp;P1;durP1;ratioP1;P2;durP2;ratioP2
7901;SDS011;3996;49.674;10.716;2023-03-24T00:02:11;6.60;;;4.40;;
7901;SDS011;3996;49.674;10.716;2023-03-24T00:04:38;7.17;;;4.63;;
7901;SDS011;3996;49.674;10.716;2023-03-24T00:07:07;7.60;;;5.03;;
7901;SDS011;3996;49.674;10.716;2023-03-24T00:09:38;5.27;;;4.20;;
7901;SDS011;3996;49.674;10.716;2023-03-24T00:12:04;5.53;;;4.53;;
7901;SDS011;3996;49.674;10.716;2023-03-24T00:14:30;5.13;;;4.20;;
7901;SDS011;3996;49.674;10.716;2023-03-24T00:16:56;5.13;;;4.37;;
7901;SDS011;3996;49.674;10.716;2023-03-24T00:19:23;6.20;;;4.60;;
7901;SDS011;3996;49.674;10.716;2023-03-24T00:21:49;5.10;;;4.27;;
7901;SDS011;3996;49.674;10.716;2023-03-24T00:24:15;5.27;;;4.40;;
7901;SDS011;3996;49.674;10.716;2023-03-24T00:26:40;4.67;;;4.07;;
7901;SDS011;3996;49.674;10.716;2023-03-24T00:29:07;4.77;;;3.97;;
7901;SDS011;3996;49.674;10.716;2023-03-24T00:31:34;6.43;;;4.10;;
7901;SDS011;3996;49.674;10.716;2023-03-24T00:34:03;5.00;;;4.07;;
7901;SDS011;3996;49.674;10.716;2023-03-24T00:36:33;4.60;;;4.10;;
7901;SDS011;3996;49.674;10.716;2023-03-24T00:38:59;4.47;;;3.70;;
7901;SDS011;3996;49.674;10.716;2023-03-24T00:41:25;4.03;;;3.43;;
7901;SDS011;3996;49.674;10.716;2023-03-24T00:43:53;5.73;;;3.70;;
7901;SDS011;3996;49.674;10.716;2023-03-24T00:46:22;5.13;;;3.90;;
7901;SDS011;3996;49.674;10.716;2023-03-24T00:49:02;4.43;;;3.63;;
7901;SDS011;3996;49.674;10.716;2023-03-24T00:51:33;5.23;;;3.30;;
7901;SDS011;3996;49.674;10.716;2023-03-24T00:54:06;5.27;;;3.43;;
7901;SDS011;3996;49.674;10.716;2023-03-24T00:56:34;5.10;;;3.10;;
7901;SDS011;3996;49.674;10.716;2023-03-24T00:59:02;3.67;;;3.10;;
7901;SDS011;3996;49.674;10.716;2023-03-24T01:01:29;4.20;;;3.30;;
7901;SDS011;3996;49.674;10.716;2023-03-24T01:03:57;4.37;;;3.07;;
7901;SDS011;3996;49.674;10.716;2023-03-24T01:06:24;4.63;;;2.90;;
7901;SDS011;3996;49.674;10.716;2023-03-24T01:08:50;4.90;;;3.10;;
7901;SDS011;3996;49.674;10.716;2023-03-24T01:11:18;5.07;;;3.10;;
7901;SDS011;3996;49.674;10.716;2023-03-24T01:13:50;3.63;;;2.77;;
7901;SDS011;3996;49.674;10.716;2023-03-24T01:16:17;3.67;;;3.10;;
7901;SDS011;3996;49.674;10.716;2023-03-24T01:18:43;3.83;;;3.23;;
7901;SDS011;3996;49.674;10.716;2023-03-24T01:21:09;3.80;;;3.00;;
7901;SDS011;3996;49.674;10.716;2023-03-24T01:23:36;4.43;;;3.00;;
7901;SDS011;3996;49.674;10.716;2023-03-24T01:26:07;3.37;;;2.90;;
7901;SDS011;3996;49.674;10.716;2023-03-24T01:28:34;3.83;;;2.93;;
7901;SDS011;3996;49.674;10.716;2023-03-24T01:31:05;4.37;;;2.93;;
7901;SDS011;3996;49.674;10.716;2023-03-24T01:33:34;3.23;;;2.80;;
7901;SDS011;3996;49.674;10.716;2023-03-24T01:36:01;3.47;;;2.93;;
7901;SDS011;3996;49.674;10.716;2023-03-24T01:38:27;3.97;;;2.90;;
7901;SDS011;3996;49.674;10.716;2023-03-24T01:40:53;3.40;;;3.07;;
7901;SDS011;3996;49.674;10.716;2023-03-24T01:43:23;3.83;;;3.00;;
7901;SDS011;3996;49.674;10.716;2023-03-24T01:48:34;4.55;;;3.00;;
7901;SDS011;3996;49.674;10.716;2023-03-24T01:56:37;7.90;;;3.63;;
7901;SDS011;3996;49.674;10.716;2023-03-24T01:59:05;4.13;;;2.93;;
7901;SDS011;3996;49.674;10.716;2023-03-24T02:01:35;3.33;;;3.03;;
7901;SDS011;3996;49.674;10.716;2023-03-24T02:04:02;4.17;;;3.50;;
7901;SDS011;3996;49.674;10.716;2023-03-24T02:06:30;3.97;;;3.30;;
7901;SDS011;3996;49.674;10.716;2023-03-24T02:08:59;4.70;;;3.60;;
7901;SDS011;3996;49.674;10.716;2023-03-24T02:11:27;4.33;;;3.90;;
7901;SDS011;3996;49.674;10.716;2023-03-24T02:13:55;6.93;;;3.97;;
7901;SDS011;3996;49.674;10.716;2023-03-24T02:24:39;5.83;;;4.27;;
7901;SDS011;3996;49.674;10.716;2023-03-24T02:30:07;3.97;;;3.20;;
7901;SDS011;3996;49.674;10.716;2023-03-24T02:35:51;4.37;;;2.93;;
7901;SDS011;3996;49.674;10.716;2023-03-24T02:47:01;3.57;;;2.47;;
7901;SDS011;3996;49.674;10.716;2023-03-24T02:49:45;4.75;;;3.40;;
7901;SDS011;3996;49.674;10.716;2023-03-24T03:02:51;4.47;;;3.07;;
7901;SDS011;3996;49.674;10.716;2023-03-24T03:05:34;3.60;;;2.87;;
7901;SDS011;3996;49.674;10.716;2023-03-24T03:08:06;5.30;;;3.50;;
7901;SDS011;3996;49.674;10.716;2023-03-24T03:10:38;4.53;;;3.13;;
7901;SDS011;3996;49.674;10.716;2023-03-24T03:13:09;14.33;;;9.73;;
7901;SDS011;3996;49.674;10.716;2023-03-24T03:15:43;27.30;;;14.10;;
7901;SDS011;3996;49.674;10.716;2023-03-24T03:18:13;35.87;;;20.47;;
7901;SDS011;3996;49.674;10.716;2023-03-24T03:20:46;32.90;;;19.05;;
7901;SDS011;3996;49.674;10.716;2023-03-24T03:23:38;24.50;;;13.40;;
7901;SDS011;3996;49.674;10.716;2023-03-24T03:26:06;58.90;;;29.60;;
7901;SDS011;3996;49.674;10.716;2023-03-24T03:28:39;111.23;;;47.40;;
7901;SDS011;3996;49.674;10.716;2023-03-24T03:31:15;20.37;;;13.90;;
